createdAt,value
2022-11-24T00:00:27.561Z,10.01
2022-11-24T00:01:27.547Z,10.01
2022-11-24T00:02:27.698Z,10.00
2022-11-24T00:03:27.643Z,10.01
2022-11-24T00:04:27.533Z,10.01
2022-11-24T00:05:27.493Z,10.01
2022-11-24T00:06:27.486Z,10.01
2022-11-24T00:07:27.502Z,10.01
2022-11-24T00:08:27.460Z,10.01
2022-11-24T00:09:27.442Z,10.01
2022-11-24T00:10:27.432Z,10.01
2022-11-24T00:11:27.415Z,10.03
2022-11-24T00:12:27.407Z,10.01
2022-11-24T00:13:27.392Z,10.00
2022-11-24T00:14:27.379Z,10.01
2022-11-24T00:15:27.366Z,10.01
2022-11-24T00:16:27.483Z,10.03
2022-11-24T00:17:27.338Z,10.03
2022-11-24T00:18:27.327Z,10.01
2022-11-24T00:19:27.312Z,10.01
2022-11-24T00:20:27.342Z,10.01
2022-11-24T00:21:27.290Z,10.03
2022-11-24T00:22:27.275Z,10.03
2022-11-24T00:23:27.260Z,10.03
2022-11-24T00:24:27.251Z,10.03
2022-11-24T00:25:27.235Z,10.03
2022-11-24T00:26:27.224Z,10.03
2022-11-24T00:27:27.207Z,10.03
2022-11-24T00:28:27.194Z,10.03
2022-11-24T00:29:27.184Z,10.01
2022-11-24T00:30:27.236Z,10.01
2022-11-24T00:31:27.217Z,10.00
2022-11-24T00:32:27.144Z,10.03
2022-11-24T00:33:27.137Z,10.01
2022-11-24T00:34:27.119Z,10.01
2022-11-24T00:35:27.107Z,10.03
2022-11-24T00:36:27.116Z,10.01
2022-11-24T00:37:27.078Z,10.03
2022-11-24T00:38:27.068Z,10.03
2022-11-24T00:39:27.051Z,10.03
2022-11-24T00:40:32.085Z,10.03
2022-11-24T00:41:28.119Z,10.03
2022-11-24T00:42:27.014Z,10.03
2022-11-24T00:43:27.000Z,10.03
2022-11-24T00:44:26.987Z,10.01
2022-11-24T00:45:26.973Z,10.03
2022-11-24T00:46:27.126Z,10.03
2022-11-24T00:47:26.948Z,10.03
2022-11-24T00:48:26.941Z,10.03
2022-11-24T00:49:26.920Z,10.03
2022-11-24T00:50:26.909Z,10.03
2022-11-24T00:51:26.895Z,10.03
2022-11-24T00:52:26.909Z,10.06
2022-11-24T00:53:26.869Z,10.04
2022-11-24T00:54:26.856Z,10.04
2022-11-24T00:55:26.844Z,10.04
2022-11-24T00:56:26.833Z,10.04
2022-11-24T00:57:26.817Z,10.01
2022-11-24T00:58:26.803Z,10.03
2022-11-24T00:59:26.790Z,10.03
2022-11-24T01:00:26.783Z,10.03
2022-11-24T01:01:26.850Z,10.03
2022-11-24T01:02:26.833Z,10.03
2022-11-24T01:03:26.739Z,10.04
2022-11-24T01:04:26.727Z,10.04
2022-11-24T01:05:26.714Z,10.04
2022-11-24T01:06:26.700Z,10.06
2022-11-24T01:07:26.755Z,10.04
2022-11-24T01:08:26.700Z,10.04
2022-11-24T01:09:26.661Z,10.06
2022-11-24T01:10:26.647Z,10.04
2022-11-24T01:11:26.638Z,10.09
2022-11-24T01:12:26.625Z,10.04
2022-11-24T01:13:26.607Z,10.06
2022-11-24T01:14:26.596Z,10.06
2022-11-24T01:15:26.581Z,10.04
2022-11-24T01:16:26.689Z,10.03
2022-11-24T01:17:26.555Z,10.04
2022-11-24T01:18:26.545Z,10.04
2022-11-24T01:19:26.531Z,10.04
2022-11-24T01:20:26.519Z,10.04
2022-11-24T01:21:26.503Z,10.04
2022-11-24T01:22:26.492Z,10.04
2022-11-24T01:23:26.478Z,10.04
2022-11-24T01:24:26.494Z,10.04
2022-11-24T01:25:26.454Z,10.04
2022-11-24T01:26:26.441Z,10.04
2022-11-24T01:27:26.425Z,10.06
2022-11-24T01:28:26.414Z,10.06
2022-11-24T01:29:26.400Z,10.06
2022-11-24T01:30:26.389Z,10.06
2022-11-24T01:31:26.452Z,10.06
2022-11-24T01:32:26.363Z,10.06
2022-11-24T01:33:26.346Z,10.06
2022-11-24T01:34:26.336Z,10.04
2022-11-24T01:35:26.323Z,10.04
2022-11-24T01:36:26.315Z,10.04
2022-11-24T01:37:26.296Z,10.04
2022-11-24T01:38:26.287Z,10.04
2022-11-24T01:39:26.270Z,10.06
2022-11-24T01:40:26.283Z,10.04
2022-11-24T01:41:26.242Z,10.03
2022-11-24T01:42:26.231Z,10.04
2022-11-24T01:43:26.218Z,10.04
2022-11-24T01:44:26.204Z,10.03
2022-11-24T01:45:26.191Z,10.04
2022-11-24T01:46:26.219Z,10.06
2022-11-24T01:47:26.165Z,10.04
2022-11-24T01:48:27.597Z,10.06
2022-11-24T01:49:26.145Z,10.06
2022-11-24T01:50:26.128Z,10.06
2022-11-24T01:51:26.113Z,10.06
2022-11-24T01:52:26.102Z,10.04
2022-11-24T01:53:26.087Z,10.04
2022-11-24T01:54:26.074Z,10.06
2022-11-24T01:55:26.059Z,10.04
2022-11-24T01:56:26.075Z,10.06
2022-11-24T01:57:26.036Z,10.04
2022-11-24T01:58:26.024Z,10.06
2022-11-24T01:59:26.009Z,10.06
2022-11-24T02:00:25.997Z,10.06
2022-11-24T02:01:26.046Z,10.04
2022-11-24T02:02:26.004Z,10.04
2022-11-24T02:03:25.955Z,10.03
2022-11-24T02:04:25.944Z,10.06
2022-11-24T02:05:25.933Z,10.04
2022-11-24T02:06:25.922Z,10.04
2022-11-24T02:07:25.934Z,10.04
2022-11-24T02:08:25.892Z,10.04
2022-11-24T02:09:25.877Z,10.04
2022-11-24T02:10:25.865Z,10.06
2022-11-24T02:11:25.851Z,10.03
2022-11-24T02:12:25.865Z,10.03
2022-11-24T02:13:25.823Z,10.06
2022-11-24T02:14:25.814Z,10.06
2022-11-24T02:15:25.800Z,10.06
2022-11-24T02:16:25.835Z,10.06
2022-11-24T02:17:25.772Z,10.04
2022-11-24T02:18:25.761Z,10.07
2022-11-24T02:19:25.746Z,10.06
2022-11-24T02:20:25.737Z,10.06
2022-11-24T02:21:25.722Z,10.04
2022-11-24T02:22:25.707Z,10.07
2022-11-24T02:23:25.695Z,10.06
2022-11-24T02:24:25.682Z,10.06
2022-11-24T02:25:25.671Z,10.06
2022-11-24T02:26:25.656Z,10.04
2022-11-24T02:27:25.642Z,10.06
2022-11-24T02:28:25.655Z,10.06
2022-11-24T02:29:25.615Z,10.04
2022-11-24T02:30:25.604Z,10.04
2022-11-24T02:31:25.666Z,10.04
2022-11-24T02:32:25.579Z,10.03
2022-11-24T02:33:25.573Z,10.04
2022-11-24T02:34:25.553Z,10.04
2022-11-24T02:35:25.537Z,10.04
2022-11-24T02:36:25.527Z,10.04
2022-11-24T02:37:25.513Z,10.04
2022-11-24T02:38:25.500Z,10.04
2022-11-24T02:39:25.485Z,10.06
2022-11-24T02:40:25.494Z,10.06
2022-11-24T02:41:31.467Z,10.04
2022-11-24T02:42:25.448Z,10.04
2022-11-24T02:43:25.435Z,10.06
2022-11-24T02:44:25.446Z,10.07
2022-11-24T02:45:25.409Z,10.07
2022-11-24T02:46:25.516Z,10.07
2022-11-24T02:47:25.384Z,10.07
2022-11-24T02:48:25.368Z,10.06
2022-11-24T02:49:25.358Z,10.06
2022-11-24T02:50:25.343Z,10.06
2022-11-24T02:51:25.332Z,10.06
2022-11-24T02:52:25.316Z,10.04
2022-11-24T02:53:25.305Z,10.06
2022-11-24T02:54:25.290Z,10.07
2022-11-24T02:55:25.279Z,10.06
2022-11-24T02:56:25.269Z,10.06
2022-11-24T02:57:25.253Z,10.06
2022-11-24T02:58:25.238Z,10.06
2022-11-24T02:59:25.225Z,10.06
2022-11-24T03:00:25.235Z,10.06
2022-11-24T03:01:25.260Z,10.06
2022-11-24T03:02:25.270Z,10.06
2022-11-24T03:03:25.174Z,10.06
2022-11-24T03:04:25.165Z,10.07
2022-11-24T03:05:25.149Z,10.06
2022-11-24T03:06:25.135Z,10.06
2022-11-24T03:07:25.124Z,10.06
2022-11-24T03:08:25.108Z,10.04
2022-11-24T03:09:25.097Z,10.06
2022-11-24T03:10:25.082Z,10.07
2022-11-24T03:11:25.069Z,10.07
2022-11-24T03:12:25.055Z,10.06
2022-11-24T03:13:25.046Z,10.07
2022-11-24T03:14:25.032Z,10.06
2022-11-24T03:15:25.018Z,10.04
2022-11-24T03:16:25.063Z,10.06
2022-11-24T03:17:24.993Z,10.04
2022-11-24T03:18:24.976Z,10.06
2022-11-24T03:19:24.964Z,10.06
2022-11-24T03:20:24.953Z,10.04
2022-11-24T03:21:24.943Z,10.03
2022-11-24T03:22:24.926Z,10.04
2022-11-24T03:23:24.913Z,10.06
2022-11-24T03:24:24.898Z,10.07
2022-11-24T03:25:24.970Z,10.06
2022-11-24T03:26:24.873Z,10.04
2022-11-24T03:27:24.862Z,10.06
2022-11-24T03:28:24.846Z,10.06
2022-11-24T03:29:24.836Z,10.04
2022-11-24T03:30:24.823Z,10.06
2022-11-24T03:31:24.898Z,10.07
2022-11-24T03:32:24.820Z,10.06
2022-11-24T03:33:24.783Z,10.04
2022-11-24T03:34:24.768Z,10.03
2022-11-24T03:35:24.756Z,10.04
2022-11-24T03:36:24.745Z,10.07
2022-11-24T03:37:24.729Z,10.06
2022-11-24T03:38:24.719Z,10.07
2022-11-24T03:39:24.704Z,10.07
2022-11-24T03:40:24.706Z,10.07
2022-11-24T03:41:24.679Z,10.06
2022-11-24T03:42:24.663Z,10.06
2022-11-24T03:43:24.656Z,10.07
2022-11-24T03:44:24.640Z,10.06
2022-11-24T03:46:25.708Z,10.07
2022-11-24T03:47:24.603Z,10.06
2022-11-24T03:48:24.614Z,10.06
2022-11-24T03:49:24.577Z,10.07
2022-11-24T03:50:24.560Z,10.06
2022-11-24T03:51:24.549Z,10.06
2022-11-24T03:52:24.535Z,10.06
2022-11-24T03:53:24.522Z,10.06
2022-11-24T03:54:24.507Z,10.07
2022-11-24T03:55:24.499Z,10.06
2022-11-24T03:56:24.482Z,10.06
2022-11-24T03:57:24.473Z,10.06
2022-11-24T03:58:24.458Z,10.06
2022-11-24T03:59:24.446Z,10.06
2022-11-24T04:00:24.431Z,10.06
2022-11-24T04:01:24.458Z,10.04
2022-11-24T04:02:24.472Z,10.06
2022-11-24T04:03:24.396Z,10.06
2022-11-24T04:04:24.403Z,10.06
2022-11-24T04:05:24.367Z,10.06
2022-11-24T04:06:24.352Z,10.06
2022-11-24T04:07:24.366Z,10.07
2022-11-24T04:08:24.326Z,10.06
2022-11-24T04:09:24.314Z,10.06
2022-11-24T04:10:24.308Z,10.07
2022-11-24T04:11:24.288Z,10.07
2022-11-24T04:12:24.275Z,10.07
2022-11-24T04:13:24.357Z,10.06
2022-11-24T04:14:24.393Z,10.06
2022-11-24T04:15:24.236Z,10.06
2022-11-24T04:16:24.287Z,10.04
2022-11-24T04:17:24.211Z,10.04
2022-11-24T04:18:24.195Z,10.04
2022-11-24T04:19:24.184Z,10.06
2022-11-24T04:20:24.193Z,10.04
2022-11-24T04:21:24.159Z,10.04
2022-11-24T04:22:24.145Z,10.06
2022-11-24T04:23:24.133Z,10.07
2022-11-24T04:24:24.119Z,10.06
2022-11-24T04:25:24.109Z,10.04
2022-11-24T04:26:24.092Z,10.06
2022-11-24T04:27:24.080Z,10.06
2022-11-24T04:28:24.071Z,10.04
2022-11-24T04:29:24.135Z,10.03
2022-11-24T04:30:24.040Z,10.06
2022-11-24T04:31:24.069Z,10.04
2022-11-24T04:32:24.014Z,10.04
2022-11-24T04:33:24.018Z,10.04
2022-11-24T04:34:23.988Z,10.07
2022-11-24T04:35:23.977Z,10.06
2022-11-24T04:36:23.991Z,10.06
2022-11-24T04:37:23.951Z,10.04
2022-11-24T04:39:19.854Z,10.06
2022-11-24T04:39:28.553Z,10.04
2022-11-24T04:40:23.910Z,10.04
2022-11-24T04:41:23.899Z,10.04
2022-11-24T04:42:23.883Z,10.06
2022-11-24T04:43:23.872Z,10.04
2022-11-24T04:44:23.856Z,10.04
2022-11-24T04:45:23.848Z,10.06
2022-11-24T04:46:23.876Z,10.04
2022-11-24T04:47:23.819Z,10.06
2022-11-24T04:48:23.803Z,10.04
2022-11-24T04:49:23.794Z,10.04
2022-11-24T04:50:23.779Z,10.04
2022-11-24T04:51:23.768Z,10.06
2022-11-24T04:52:23.781Z,10.06
2022-11-24T04:53:23.741Z,10.06
2022-11-24T04:54:23.728Z,10.06
2022-11-24T04:55:23.720Z,10.04
2022-11-24T04:56:23.700Z,10.06
2022-11-24T04:57:23.691Z,10.06
2022-11-24T04:58:23.674Z,10.06
2022-11-24T04:59:23.663Z,10.06
2022-11-24T05:00:23.648Z,10.06
2022-11-24T05:01:23.679Z,10.06
2022-11-24T05:02:23.622Z,10.04
2022-11-24T05:03:23.611Z,10.03
2022-11-24T05:04:23.661Z,10.06
2022-11-24T05:05:23.586Z,10.04
2022-11-24T05:06:23.573Z,10.04
2022-11-24T05:07:23.607Z,10.04
2022-11-24T05:08:23.570Z,10.04
2022-11-24T05:09:32.598Z,10.04
2022-11-24T05:10:23.521Z,10.06
2022-11-24T05:11:23.508Z,10.06
2022-11-24T05:12:23.492Z,10.06
2022-11-24T05:13:23.481Z,10.06
2022-11-24T05:14:23.466Z,10.06
2022-11-24T05:15:23.453Z,10.06
2022-11-24T05:16:23.479Z,10.04
2022-11-24T05:17:23.434Z,10.06
2022-11-24T05:18:23.414Z,10.03
2022-11-24T05:19:26.231Z,10.04
2022-11-24T05:20:23.387Z,10.04
2022-11-24T05:21:23.376Z,10.04
2022-11-24T05:22:23.361Z,10.04
2022-11-24T05:23:23.349Z,10.04
2022-11-24T05:24:23.365Z,10.04
2022-11-24T05:25:23.324Z,10.06
2022-11-24T05:26:23.308Z,10.06
2022-11-24T05:27:23.302Z,10.06
2022-11-24T05:28:23.283Z,10.04
2022-11-24T05:29:23.272Z,10.07
2022-11-24T05:30:23.257Z,10.04
2022-11-24T05:31:23.300Z,10.06
2022-11-24T05:32:23.232Z,10.07
2022-11-24T05:33:23.221Z,10.06
2022-11-24T05:34:23.203Z,10.06
2022-11-24T05:35:23.193Z,10.09
2022-11-24T05:36:23.180Z,10.06
2022-11-24T05:37:23.167Z,10.06
2022-11-24T05:38:23.152Z,10.06
2022-11-24T05:39:23.147Z,10.07
2022-11-24T05:40:23.167Z,10.06
2022-11-24T05:41:23.115Z,10.06
2022-11-24T05:42:23.098Z,10.06
2022-11-24T05:43:23.088Z,10.07
2022-11-24T05:44:23.075Z,10.07
2022-11-24T05:45:23.062Z,10.07
2022-11-24T05:46:23.094Z,10.06
2022-11-24T05:47:23.038Z,10.06
2022-11-24T05:48:23.022Z,10.04
2022-11-24T05:49:23.010Z,10.07
2022-11-24T05:50:23.027Z,10.04
2022-11-24T05:51:22.984Z,10.04
2022-11-24T05:52:22.971Z,10.06
2022-11-24T05:53:22.959Z,10.06
2022-11-24T05:54:22.945Z,10.07
2022-11-24T05:55:22.932Z,10.06
2022-11-24T05:56:22.941Z,10.04
2022-11-24T05:57:22.911Z,10.06
2022-11-24T05:58:22.893Z,10.04
2022-11-24T05:59:22.883Z,10.06
2022-11-24T06:00:22.865Z,10.06
2022-11-24T06:01:22.857Z,10.06
2022-11-24T06:02:22.933Z,10.06
2022-11-24T06:03:22.834Z,10.06
2022-11-24T06:04:22.814Z,10.06
2022-11-24T06:05:22.803Z,10.06
2022-11-24T06:06:22.787Z,10.06
2022-11-24T06:07:22.899Z,10.06
2022-11-24T06:08:26.794Z,10.04
2022-11-24T06:09:23.790Z,10.06
2022-11-24T06:10:22.736Z,10.06
2022-11-24T06:11:22.727Z,10.04
2022-11-24T06:12:22.733Z,10.06
2022-11-24T06:13:22.809Z,10.04
2022-11-24T06:14:22.684Z,10.03
2022-11-24T06:15:22.670Z,10.04
2022-11-24T06:16:22.731Z,10.03
2022-11-24T06:17:22.645Z,10.03
2022-11-24T06:18:22.632Z,10.03
2022-11-24T06:19:22.622Z,10.04
2022-11-24T06:20:22.606Z,10.04
2022-11-24T06:21:22.595Z,10.04
2022-11-24T06:22:22.578Z,10.06
2022-11-24T06:23:22.569Z,10.06
2022-11-24T06:24:22.553Z,10.06
2022-11-24T06:25:22.544Z,10.06
2022-11-24T06:26:22.528Z,10.06
2022-11-24T06:27:22.516Z,10.07
2022-11-24T06:28:22.572Z,10.06
2022-11-24T06:29:22.489Z,10.06
2022-11-24T06:30:22.494Z,10.04
2022-11-24T06:31:22.507Z,10.04
2022-11-24T06:32:22.449Z,10.04
2022-11-24T06:33:22.439Z,10.06
2022-11-24T06:34:22.424Z,10.06
2022-11-24T06:35:22.411Z,10.06
2022-11-24T06:36:22.398Z,10.04
2022-11-24T06:37:22.387Z,10.04
2022-11-24T06:38:24.410Z,10.04
2022-11-24T06:39:22.360Z,10.04
2022-11-24T06:40:22.350Z,10.04
2022-11-24T06:41:22.337Z,10.04
2022-11-24T06:42:22.319Z,10.04
2022-11-24T06:43:22.307Z,10.03
2022-11-24T06:44:22.321Z,10.04
2022-11-24T06:45:22.282Z,10.04
2022-11-24T06:46:22.312Z,10.04
2022-11-24T06:47:22.255Z,10.06
2022-11-24T06:48:22.241Z,10.04
2022-11-24T06:49:22.231Z,10.04
2022-11-24T06:50:22.217Z,10.06
2022-11-24T06:51:22.203Z,10.06
2022-11-24T06:52:22.189Z,10.04
2022-11-24T06:53:22.178Z,10.06
2022-11-24T06:54:22.164Z,10.06
2022-11-24T06:55:22.152Z,10.06
2022-11-24T06:56:22.138Z,10.07
2022-11-24T06:57:22.131Z,10.07
2022-11-24T06:58:22.112Z,10.07
2022-11-24T06:59:22.103Z,10.06
2022-11-24T07:00:22.112Z,10.04
2022-11-24T07:01:22.202Z,10.06
2022-11-24T07:02:22.060Z,10.07
2022-11-24T07:03:22.117Z,10.07
2022-11-24T07:04:22.035Z,10.07
2022-11-24T07:05:22.022Z,10.06
2022-11-24T07:06:22.009Z,10.07
2022-11-24T07:07:22.089Z,10.06
2022-11-24T07:08:21.983Z,10.06
2022-11-24T07:09:21.975Z,10.07
2022-11-24T07:10:21.956Z,10.06
2022-11-24T07:11:21.942Z,10.06
2022-11-24T07:12:21.931Z,10.06
2022-11-24T07:13:21.918Z,10.07
2022-11-24T07:14:21.903Z,10.06
2022-11-24T07:15:21.890Z,10.06
2022-11-24T07:16:21.976Z,10.06
2022-11-24T07:17:21.864Z,10.07
2022-11-24T07:18:21.859Z,10.07
2022-11-24T07:19:25.099Z,10.06
2022-11-24T07:20:21.834Z,10.07
2022-11-24T07:21:21.810Z,10.09
2022-11-24T07:22:21.825Z,10.06
2022-11-24T07:23:21.789Z,10.07
2022-11-24T07:24:21.778Z,10.07
2022-11-24T07:25:21.770Z,10.07
2022-11-24T07:26:21.746Z,10.07
2022-11-24T07:27:21.739Z,10.06
2022-11-24T07:28:21.738Z,10.07
2022-11-24T07:29:21.705Z,10.07
2022-11-24T07:30:21.696Z,10.07
2022-11-24T07:31:21.762Z,10.07
2022-11-24T07:32:21.743Z,10.07
2022-11-24T07:33:21.653Z,10.07
2022-11-24T07:34:21.642Z,10.06
2022-11-24T07:35:21.628Z,10.06
2022-11-24T07:36:21.615Z,10.06
2022-11-24T07:37:23.599Z,10.06
2022-11-24T07:38:21.591Z,10.07
2022-11-24T07:39:21.575Z,10.06
2022-11-24T07:40:21.563Z,10.06
2022-11-24T07:41:21.549Z,10.04
2022-11-24T07:42:21.540Z,10.04
2022-11-24T07:43:21.522Z,10.06
2022-11-24T07:44:21.513Z,10.07
2022-11-24T07:45:21.497Z,10.07
2022-11-24T07:46:21.587Z,10.07
2022-11-24T07:47:21.473Z,10.07
2022-11-24T07:48:21.487Z,10.07
2022-11-24T07:49:21.446Z,10.07
2022-11-24T07:50:21.434Z,10.07
2022-11-24T07:51:21.419Z,10.07
2022-11-24T07:52:21.405Z,10.07
2022-11-24T07:53:21.396Z,10.07
2022-11-24T07:54:21.382Z,10.07
2022-11-24T07:55:21.372Z,10.07
2022-11-24T07:56:21.355Z,10.06
2022-11-24T07:57:21.340Z,10.07
2022-11-24T07:58:21.329Z,10.07
2022-11-24T07:59:21.314Z,10.06
2022-11-24T08:00:21.306Z,10.06
2022-11-24T08:01:21.395Z,10.07
2022-11-24T08:02:21.277Z,10.07
2022-11-24T08:03:21.299Z,10.06
2022-11-24T08:04:21.291Z,10.07
2022-11-24T08:05:21.237Z,10.06
2022-11-24T08:06:28.671Z,10.09
2022-11-24T08:07:22.315Z,10.09
2022-11-24T08:08:21.199Z,10.09
2022-11-24T08:09:21.184Z,10.07
2022-11-24T08:10:21.174Z,10.06
2022-11-24T08:11:21.160Z,10.07
2022-11-24T08:12:21.150Z,10.06
2022-11-24T08:13:21.131Z,10.07
2022-11-24T08:14:21.121Z,10.07
2022-11-24T08:15:21.105Z,10.04
2022-11-24T08:16:21.177Z,10.06
2022-11-24T08:17:21.078Z,10.06
2022-11-24T08:18:21.068Z,10.07
2022-11-24T08:19:21.053Z,10.09
2022-11-24T08:20:21.077Z,10.10
2022-11-24T08:21:21.025Z,10.09
2022-11-24T08:22:21.028Z,10.07
2022-11-24T08:23:21.001Z,10.07
2022-11-24T08:24:20.989Z,10.07
2022-11-24T08:25:20.976Z,10.07
2022-11-24T08:26:20.962Z,10.09
2022-11-24T08:27:20.948Z,10.09
2022-11-24T08:28:20.936Z,10.07
2022-11-24T08:29:20.921Z,10.07
2022-11-24T08:30:20.909Z,10.09
2022-11-24T08:31:21.028Z,10.09
2022-11-24T08:32:22.592Z,10.09
2022-11-24T08:33:20.870Z,10.06
2022-11-24T08:34:20.858Z,10.09
2022-11-24T08:35:20.851Z,10.09
2022-11-24T08:36:20.862Z,10.09
2022-11-24T08:37:20.820Z,10.07
2022-11-24T08:38:20.805Z,10.07
2022-11-24T08:39:20.796Z,10.09
2022-11-24T08:40:20.781Z,10.07
2022-11-24T08:41:20.768Z,10.09
2022-11-24T08:42:20.754Z,10.10
2022-11-24T08:43:20.740Z,10.09
2022-11-24T08:44:20.726Z,10.07
2022-11-24T08:45:22.472Z,10.09
2022-11-24T08:46:20.733Z,10.09
2022-11-24T08:47:20.688Z,10.07
2022-11-24T08:48:20.677Z,10.07
2022-11-24T08:49:20.662Z,10.06
2022-11-24T08:50:20.660Z,10.07
2022-11-24T08:51:20.643Z,10.07
2022-11-24T08:52:20.666Z,10.09
2022-11-24T08:53:20.611Z,10.07
2022-11-24T08:54:20.599Z,10.07
2022-11-24T08:55:20.588Z,10.12
2022-11-24T08:56:20.572Z,10.10
2022-11-24T08:57:22.046Z,10.10
2022-11-24T08:58:20.548Z,10.09
2022-11-24T08:59:20.624Z,10.12
2022-11-24T09:00:20.519Z,10.10
2022-11-24T09:01:20.586Z,10.12
2022-11-24T09:02:20.547Z,10.12
2022-11-24T09:03:20.485Z,10.12
2022-11-24T09:04:20.530Z,10.14
2022-11-24T09:05:50.185Z,10.12
2022-11-24T09:06:21.482Z,10.12
2022-11-24T09:07:20.449Z,10.12
2022-11-24T09:08:20.444Z,10.12
2022-11-24T09:09:20.401Z,10.12
2022-11-24T09:10:20.388Z,10.12
2022-11-24T09:11:20.380Z,10.12
2022-11-24T09:12:20.362Z,10.14
2022-11-24T09:13:20.349Z,10.14
2022-11-24T09:14:20.338Z,10.12
2022-11-24T09:15:20.321Z,10.14
2022-11-24T09:16:20.444Z,10.14
2022-11-24T09:17:20.296Z,10.14
2022-11-24T09:18:20.284Z,10.15
2022-11-24T09:19:20.274Z,10.14
2022-11-24T09:20:20.261Z,10.14
2022-11-24T09:21:20.250Z,10.14
2022-11-24T09:22:20.236Z,10.15
2022-11-24T09:23:20.217Z,10.12
2022-11-24T09:24:20.237Z,10.15
2022-11-24T09:25:20.192Z,10.15
2022-11-24T09:26:20.183Z,10.15
2022-11-24T09:27:20.167Z,10.14
2022-11-24T09:28:20.156Z,10.14
2022-11-24T09:29:20.141Z,10.14
2022-11-24T09:30:20.130Z,10.15
2022-11-24T09:31:20.130Z,10.15
2022-11-24T09:32:20.105Z,10.15
2022-11-24T09:33:20.090Z,10.15
2022-11-24T09:34:20.077Z,10.15
2022-11-24T09:35:20.067Z,10.17
2022-11-24T09:36:20.052Z,10.15
2022-11-24T09:37:20.036Z,10.18
2022-11-24T09:38:20.026Z,10.15
2022-11-24T09:39:20.010Z,10.15
2022-11-24T09:40:20.022Z,10.17
2022-11-24T09:41:19.986Z,10.15
2022-11-24T09:42:19.973Z,10.15
2022-11-24T09:43:19.963Z,10.17
2022-11-24T09:44:19.948Z,10.17
2022-11-24T09:45:35.431Z,10.17
2022-11-24T09:46:21.037Z,10.18
2022-11-24T09:47:19.907Z,10.17
2022-11-24T09:48:19.902Z,10.18
2022-11-24T09:49:19.880Z,10.18
2022-11-24T09:50:19.941Z,10.18
2022-11-24T09:51:19.853Z,10.18
2022-11-24T09:52:19.846Z,10.18
2022-11-24T09:53:19.828Z,10.18
2022-11-24T09:54:19.816Z,10.19
2022-11-24T09:55:19.802Z,10.18
2022-11-24T09:56:19.827Z,10.18
2022-11-24T09:57:19.774Z,10.18
2022-11-24T09:58:19.764Z,10.19
2022-11-24T09:59:19.756Z,10.18
2022-11-24T10:00:19.825Z,10.19
2022-11-24T10:01:19.788Z,10.19
2022-11-24T10:02:19.719Z,10.19
2022-11-24T10:03:19.705Z,10.19
2022-11-24T10:04:19.755Z,10.21
2022-11-24T10:05:19.672Z,10.21
2022-11-24T10:06:19.661Z,10.19
2022-11-24T10:07:19.720Z,10.21
2022-11-24T10:08:19.649Z,10.21
2022-11-24T10:09:19.620Z,10.22
2022-11-24T10:10:24.500Z,10.21
2022-11-24T10:11:19.592Z,10.21
2022-11-24T10:12:19.614Z,10.21
2022-11-24T10:13:19.566Z,10.21
2022-11-24T10:14:19.556Z,10.22
2022-11-24T10:15:19.541Z,10.22
2022-11-24T10:16:19.592Z,10.22
2022-11-24T10:17:19.516Z,10.21
2022-11-24T10:18:19.503Z,10.22
2022-11-24T10:19:19.492Z,10.24
2022-11-24T10:20:19.477Z,10.22
2022-11-24T10:21:19.463Z,10.21
2022-11-24T10:22:19.456Z,10.22
2022-11-24T10:23:19.437Z,10.22
2022-11-24T10:24:19.427Z,10.22
2022-11-24T10:25:19.426Z,10.22
2022-11-24T10:26:19.402Z,10.24
2022-11-24T10:27:19.386Z,10.25
2022-11-24T10:28:19.403Z,10.25
2022-11-24T10:29:19.362Z,10.26
2022-11-24T10:30:19.355Z,10.25
2022-11-24T10:31:19.423Z,10.25
2022-11-24T10:32:19.325Z,10.24
2022-11-24T10:33:19.308Z,10.26
2022-11-24T10:34:19.299Z,10.25
2022-11-24T10:35:19.281Z,10.26
2022-11-24T10:36:19.274Z,10.25
2022-11-24T10:37:19.259Z,10.25
2022-11-24T10:38:19.248Z,10.24
2022-11-24T10:39:19.230Z,10.26
2022-11-24T10:40:48.704Z,10.26
2022-11-24T10:41:20.250Z,10.25
2022-11-24T10:42:19.193Z,10.26
2022-11-24T10:43:19.178Z,10.26
2022-11-24T10:44:19.193Z,10.26
2022-11-24T10:45:19.151Z,10.28
2022-11-24T10:46:19.256Z,10.25
2022-11-24T10:47:19.123Z,10.26
2022-11-24T10:48:19.111Z,10.26
2022-11-24T10:49:19.096Z,10.25
2022-11-24T10:50:19.089Z,10.25
2022-11-24T10:51:19.075Z,10.24
2022-11-24T10:52:19.063Z,10.26
2022-11-24T10:53:19.047Z,10.25
2022-11-24T10:54:19.037Z,10.25
2022-11-24T10:55:21.550Z,10.25
2022-11-24T10:56:19.009Z,10.25
2022-11-24T10:57:18.995Z,10.25
2022-11-24T10:58:18.985Z,10.25
2022-11-24T10:59:18.971Z,10.25
2022-11-24T11:00:19.074Z,10.25
2022-11-24T11:01:18.993Z,10.22
2022-11-24T11:02:19.012Z,10.24
2022-11-24T11:03:18.916Z,10.24
2022-11-24T11:04:18.919Z,10.24
2022-11-24T11:05:18.891Z,10.25
2022-11-24T11:06:18.879Z,10.24
2022-11-24T11:07:19.027Z,10.26
2022-11-24T11:08:18.854Z,10.25
2022-11-24T11:09:18.838Z,10.25
2022-11-24T11:10:18.829Z,10.25
2022-11-24T11:11:18.828Z,10.25
2022-11-24T11:12:42.855Z,10.25
2022-11-24T11:13:18.787Z,10.25
2022-11-24T11:14:18.776Z,10.25
2022-11-24T11:15:18.764Z,10.25
2022-11-24T11:16:18.855Z,10.25
2022-11-24T11:17:18.737Z,10.26
2022-11-24T11:18:18.723Z,10.26
2022-11-24T11:19:47.507Z,10.26
2022-11-24T11:20:19.738Z,10.25
2022-11-24T11:21:18.687Z,10.26
2022-11-24T11:22:18.669Z,10.25
2022-11-24T11:23:18.658Z,10.26
2022-11-24T11:24:18.652Z,10.26
2022-11-24T11:25:18.634Z,10.28
2022-11-24T11:26:18.620Z,10.28
2022-11-24T11:27:18.605Z,10.30
2022-11-24T11:28:18.862Z,10.28
2022-11-24T11:31:21.061Z,10.30
2022-11-24T11:34:26.617Z,10.30
2022-11-24T11:35:19.540Z,10.28
2022-11-24T11:36:18.509Z,10.30
2022-11-24T11:37:18.473Z,10.30
2022-11-24T11:38:18.458Z,10.32
2022-11-24T11:39:18.447Z,10.32
2022-11-24T11:40:18.453Z,10.30
2022-11-24T11:41:18.420Z,10.32
2022-11-24T11:42:45.329Z,10.30
2022-11-24T11:43:19.433Z,10.33
2022-11-24T11:44:18.385Z,10.36
2022-11-24T11:45:18.484Z,10.36
2022-11-24T11:46:18.600Z,10.34
2022-11-24T11:47:18.342Z,10.33
2022-11-24T11:48:18.355Z,10.34
2022-11-24T11:49:18.316Z,10.34
2022-11-24T11:50:18.396Z,10.34
2022-11-24T11:51:25.630Z,10.34
2022-11-24T11:52:19.320Z,10.34
2022-11-24T11:53:18.418Z,10.33
2022-11-24T11:54:18.250Z,10.32
2022-11-24T11:55:18.237Z,10.34
2022-11-24T11:56:18.226Z,10.34
2022-11-24T11:57:18.213Z,10.33
2022-11-24T11:58:18.205Z,10.34
2022-11-24T11:59:18.194Z,10.34
2022-11-24T12:00:18.174Z,10.34
2022-11-24T12:01:18.160Z,10.33
2022-11-24T12:02:18.208Z,10.32
2022-11-24T12:03:18.340Z,10.32
2022-11-24T12:04:18.188Z,10.32
2022-11-24T12:05:18.111Z,10.33
2022-11-24T12:06:18.094Z,10.34
2022-11-24T12:07:18.186Z,10.33
2022-11-24T12:08:21.260Z,10.34
2022-11-24T12:09:20.931Z,10.33
2022-11-24T12:10:18.043Z,10.33
2022-11-24T12:11:18.035Z,10.34
2022-11-24T12:12:18.018Z,10.34
2022-11-24T12:13:18.013Z,10.34
2022-11-24T12:14:17.993Z,10.34
2022-11-24T12:15:17.983Z,10.34
2022-11-24T12:16:18.024Z,10.33
2022-11-24T12:17:17.957Z,10.34
2022-11-24T12:18:48.565Z,10.34
2022-11-24T12:19:18.967Z,10.34
2022-11-24T12:20:17.936Z,10.33
2022-11-24T12:21:23.085Z,10.33
2022-11-24T12:22:18.926Z,10.34
2022-11-24T12:23:17.876Z,10.33
2022-11-24T12:24:17.935Z,10.34
2022-11-24T12:25:17.849Z,10.36
2022-11-24T12:26:17.833Z,10.34
2022-11-24T12:27:22.499Z,10.34
2022-11-24T12:28:17.819Z,10.36
2022-11-24T12:29:17.797Z,10.37
2022-11-24T12:30:17.781Z,10.37
2022-11-24T12:31:17.831Z,10.37
2022-11-24T12:32:17.963Z,10.37
2022-11-24T12:33:17.742Z,10.36
2022-11-24T12:34:17.728Z,10.37
2022-11-24T12:35:17.719Z,10.39
2022-11-24T12:36:17.731Z,10.37
2022-11-24T12:37:17.692Z,10.36
2022-11-24T12:38:17.676Z,10.36
2022-11-24T12:39:17.665Z,10.37
2022-11-24T12:40:17.654Z,10.37
2022-11-24T12:41:40.418Z,10.37
2022-11-24T12:42:18.666Z,10.37
2022-11-24T12:43:17.613Z,10.39
2022-11-24T12:44:17.597Z,10.37
2022-11-24T12:45:17.585Z,10.36
2022-11-24T12:46:17.819Z,10.37
2022-11-24T12:47:17.565Z,10.37
2022-11-24T12:48:17.545Z,10.37
2022-11-24T12:49:17.537Z,10.37
2022-11-24T12:50:17.522Z,10.39
2022-11-24T12:51:17.510Z,10.39
2022-11-24T12:52:17.518Z,10.39
2022-11-24T12:53:17.482Z,10.40
2022-11-24T12:54:17.470Z,10.40
2022-11-24T12:55:17.459Z,10.40
2022-11-24T12:56:17.441Z,10.37
2022-11-24T12:57:17.428Z,10.39